Terminal Aerodrome Forecast
Issued by NWS

Home | Current Version | Previous Version | Text Only | Print | Product List | Glossary On
Versions: 1 2 3 4 5 6 7 8 9 10 11 12 13 14 15 16
000
FTUS45 KABQ 251131
TAFROW
TAF
KROW 251131Z 2512/2612 14007KT P6SM SCT020 BKN200
      TEMPO 2512/2515 BKN018
     FM251800 14008KT P6SM FEW050
     FM252300 15011G21KT P6SM SCT070
      TEMPO 2602/2606 VRB20G35KT 4SM -TSRA OVC030CB
     FM260700 14007KT P6SM SCT045 BKN090=

USA.gov is the U.S. government's official web portal to all federal, state and local government web resources and services.